KGLD/GLD METAR and TAF weather

Enter ICAO airport designator
Station Type Date Time Source
KGLD METAR 2021/09/24 06:53 UTC NOAA

KGLD 240653Z AUTO 29008KT 10SM CLR 13/01 A3004 RMK AO2 SLP130 T01330011 403330056


Station Type Date Time Source
KGLD Decoded METAR 2021/09/24 06:53 UTC NOAA

GOODLAND RENNER FIELD, KS, United States (KGLD) 39-22N 101-42W 1114M
Sep 24, 2021 - 02:53 AM EDT / 2021.09.24 0653 UTC
Wind: from the WNW (290 degrees) at 9 MPH (8 KT):0
Visibility: 10 mile(s):0
Sky conditions: clear
Temperature: 55.9 F (13.3 C)
Dew Point: 34.0 F (1.1 C)
Relative Humidity: 43%
Pressure (altimeter): 30.04 in. Hg (1017 hPa)
ob: KGLD 240653Z AUTO 29008KT 10SM CLR 13/01 A3004 RMK AO2 SLP130 T01330011 403330056
cycle: 7

Station Type Date Time Source
KGLD TAF 2021/09/24 06:51 UTC NOAA

TAF
AMD KGLD 240548Z 2406/2506 31008KT P6SM FEW200
FM241700 03012G18KT P6SM FEW250
FM242300 06009KT P6SM SKC
FM250200 VRB05KT P6SM SKC

Example: see airport list